createdAt,value
2022-11-13T05:32:44.528Z,101342.59
2022-11-13T05:35:31.840Z,101335.41
2022-11-13T05:38:18.340Z,101320.34
2022-11-13T05:41:06.553Z,101336.19
2022-11-13T05:43:59.197Z,101327.28
2022-11-13T05:46:46.747Z,101327.25
2022-11-13T05:49:33.423Z,101327.25
2022-11-13T05:52:19.980Z,101313.22
2022-11-13T05:55:07.538Z,101321.03
2022-11-13T05:57:54.106Z,101311.38
2022-11-13T06:00:40.478Z,101318.38
2022-11-13T06:03:26.971Z,101314.81
2022-11-13T06:06:17.874Z,101311.28
2022-11-13T06:09:10.534Z,101311.28
2022-11-13T06:11:57.200Z,101315.81
2022-11-13T06:14:43.929Z,101308.66
2022-11-13T06:17:30.610Z,101308.63
2022-11-13T06:20:17.259Z,101305.97
2022-11-13T06:23:04.083Z,101313.94
2022-11-13T06:25:50.861Z,101305.09
2022-11-13T06:28:37.631Z,101302.50
2022-11-13T06:31:31.223Z,101304.16
2022-11-13T06:34:17.415Z,101300.66
2022-11-13T06:37:03.908Z,101305.16
2022-11-13T06:39:50.641Z,101297.13
2022-11-13T06:42:36.971Z,101297.09
2022-11-13T06:45:23.446Z,101278.47
2022-11-13T06:48:11.289Z,101271.53
2022-11-13T06:51:06.837Z,101291.69
2022-11-13T06:53:53.945Z,101294.34
2022-11-13T06:56:45.343Z,101297.81
2022-11-13T06:59:32.317Z,101287.19
2022-11-13T07:02:18.688Z,101289.78
2022-11-13T07:05:05.440Z,101295.16
2022-11-13T07:07:52.700Z,101289.06
2022-11-13T07:10:40.164Z,101303.31
2022-11-13T07:13:28.465Z,101285.69
2022-11-13T07:16:17.965Z,101305.16
2022-11-13T07:19:05.649Z,101287.47
2022-11-13T07:21:52.181Z,101268.03
2022-11-13T07:24:38.811Z,101290.97
2022-11-13T07:27:25.309Z,101277.59
2022-11-13T07:30:12.444Z,101277.53
2022-11-13T07:33:03.598Z,101273.22
2022-11-13T07:35:49.958Z,101277.66
2022-11-13T07:38:37.343Z,101284.84
2022-11-13T07:41:26.134Z,101265.47
2022-11-13T07:44:21.951Z,101267.25
2022-11-13T07:47:18.750Z,101258.28
2022-11-13T07:50:10.728Z,101262.72
2022-11-13T07:53:00.486Z,101270.59
2022-11-13T07:55:47.921Z,101273.22
2022-11-13T07:58:34.743Z,101254.63
2022-11-13T08:01:21.709Z,101259.00
2022-11-13T08:04:08.640Z,101263.41
2022-11-13T08:06:55.369Z,101257.31
2022-11-13T08:09:41.642Z,101247.63
2022-11-13T08:12:28.214Z,101250.25
2022-11-13T08:15:15.430Z,101252.06
2022-11-13T08:18:04.653Z,101253.78
2022-11-13T08:20:51.253Z,101264.34
2022-11-13T08:23:37.655Z,101251.13
2022-11-13T08:26:23.831Z,101255.53
2022-11-13T08:29:10.030Z,101245.03
2022-11-13T08:31:56.371Z,101238.00
2022-11-13T08:34:42.656Z,101241.50
2022-11-13T08:37:29.992Z,101227.41
2022-11-13T08:40:16.368Z,101229.16
2022-11-13T08:43:04.689Z,101233.34
2022-11-13T08:45:51.750Z,101235.81
2022-11-13T08:48:38.327Z,101229.50
2022-11-13T08:51:25.441Z,101235.66
2022-11-13T08:54:12.835Z,101237.31
2022-11-13T08:57:04.720Z,101237.16
2022-11-13T08:59:52.747Z,101222.09
2022-11-13T09:02:39.060Z,101232.69
2022-11-13T09:05:26.135Z,101224.78
2022-11-13T09:08:12.698Z,101224.00
2022-11-13T09:11:06.363Z,101209.06
2022-11-13T09:13:53.895Z,101215.25
2022-11-13T09:16:40.815Z,101208.28
2022-11-13T09:19:27.832Z,101203.00
2022-11-13T09:22:14.290Z,101197.88
2022-11-13T09:25:01.176Z,101191.63
2022-11-13T09:27:58.319Z,101176.59
2022-11-13T09:30:45.085Z,101170.41
2022-11-13T09:33:31.709Z,101165.81
2022-11-13T09:36:18.253Z,101171.81
2022-11-13T09:39:05.734Z,101169.06
2022-11-13T09:42:19.213Z,101177.81
2022-11-13T09:45:14.944Z,101167.97
2022-11-13T09:48:33.638Z,101177.59
2022-11-13T09:51:33.214Z,101172.31
2022-11-13T09:54:20.556Z,101164.53
2022-11-13T09:57:15.714Z,101183.81
2022-11-13T10:00:19.922Z,101177.72
2022-11-13T10:03:33.440Z,101181.06
2022-11-13T10:07:03.901Z,101175.66
2022-11-13T10:10:18.147Z,101171.97
2022-11-13T10:13:06.234Z,101165.69
2022-11-13T10:16:06.930Z,101160.25
2022-11-13T10:19:00.902Z,101139.78
2022-11-13T10:22:34.558Z,101137.78
2022-11-13T10:25:25.847Z,101143.88
2022-11-13T10:28:49.950Z,101135.94
2022-11-13T10:31:59.780Z,101114.56
2022-11-13T10:34:57.263Z,101119.84
2022-11-13T10:38:09.372Z,101103.06
2022-11-13T10:41:20.313Z,101108.28
2022-11-13T10:44:34.540Z,101101.09
2022-11-13T10:47:57.314Z,101092.28
2022-11-13T10:50:36.994Z,101090.50
2022-11-13T10:53:27.575Z,101087.66
2022-11-13T10:56:26.797Z,101083.09
2022-11-13T10:59:13.782Z,101079.50
2022-11-13T11:02:15.646Z,101080.16
2022-11-13T11:05:16.475Z,101072.25
2022-11-13T11:08:10.987Z,101070.34
2022-11-13T11:11:32.877Z,101073.72
2022-11-13T11:15:04.971Z,101053.38
2022-11-13T11:18:00.456Z,101058.53
2022-11-13T11:20:58.774Z,101049.44
2022-11-13T11:24:06.742Z,101059.94
2022-11-13T11:27:00.971Z,101044.78
2022-11-13T11:30:05.137Z,101041.06
2022-11-13T11:33:20.857Z,101030.41
2022-11-13T11:36:33.076Z,101039.16
2022-11-13T11:39:42.942Z,101020.41
2022-11-13T11:42:56.506Z,101012.28
2022-11-13T11:45:46.445Z,100995.47
2022-11-13T11:48:34.789Z,100988.31
2022-11-13T11:51:48.359Z,100995.97
2022-11-13T11:55:29.897Z,100987.19
2022-11-13T11:58:22.532Z,100965.84
2022-11-13T12:01:42.933Z,100967.34
2022-11-13T12:04:48.040Z,100963.72
2022-11-13T12:07:40.673Z,100948.50
2022-11-13T12:11:11.561Z,100937.66
2022-11-13T12:14:16.233Z,100938.38
2022-11-13T12:17:41.982Z,100912.66
2022-11-13T12:21:02.177Z,100906.22
2022-11-13T12:24:03.987Z,100897.09
2022-11-13T12:27:20.355Z,100899.72
2022-11-13T12:30:20.079Z,100898.75
2022-11-13T12:33:21.090Z,100902.94
2022-11-13T12:36:12.492Z,100894.81
2022-11-13T12:39:20.748Z,100893.75
2022-11-13T12:42:34.488Z,100905.09
2022-11-13T12:45:38.995Z,100892.50
2022-11-13T12:48:42.138Z,100872.06
2022-11-13T12:51:40.465Z,100876.28
2022-11-13T12:54:37.117Z,100871.66
2022-11-13T12:57:30.338Z,100851.44
2022-11-13T13:00:30.493Z,100858.09
2022-11-13T13:03:59.163Z,100852.66
2022-11-13T13:07:01.915Z,100851.66
2022-11-13T13:11:11.168Z,100850.03
2022-11-13T13:14:26.240Z,100835.63
2022-11-13T13:17:15.608Z,100826.66
2022-11-13T13:20:04.416Z,100810.53
2022-11-13T13:23:00.387Z,100815.75
2022-11-13T13:25:47.924Z,100805.00
2022-11-13T13:28:38.951Z,100795.19
2022-11-13T13:32:12.313Z,100789.66
2022-11-13T13:35:13.851Z,100779.88
2022-11-13T13:38:35.751Z,100779.78
2022-11-13T13:41:47.302Z,100778.81
2022-11-13T13:45:11.464Z,100775.03
2022-11-13T13:47:59.607Z,100769.78
2022-11-13T13:50:50.190Z,100769.50
2022-11-13T13:53:37.210Z,100764.00
2022-11-13T13:56:26.207Z,100765.59
2022-11-13T13:59:27.342Z,100752.94
2022-11-13T14:02:22.323Z,100749.38
2022-11-13T14:05:24.663Z,100751.78
2022-11-13T14:08:23.052Z,100737.41
2022-11-13T14:11:19.375Z,100736.84
2022-11-13T14:14:21.084Z,100734.81
2022-11-13T14:17:12.087Z,100729.47
2022-11-13T14:20:02.316Z,100729.38
2022-11-13T14:22:56.276Z,100735.22
2022-11-13T14:25:44.910Z,100720.22
2022-11-13T14:28:47.748Z,100727.91
2022-11-13T14:31:37.598Z,100732.53
2022-11-13T14:34:24.848Z,100715.56
2022-11-13T14:37:36.588Z,100723.41
2022-11-13T14:40:31.341Z,100717.91
2022-11-13T14:43:32.493Z,100721.19
2022-11-13T14:46:44.551Z,100720.97
2022-11-13T14:49:36.437Z,100713.69
2022-11-13T14:52:29.017Z,100684.31
2022-11-13T14:55:27.495Z,100695.16
2022-11-13T14:58:15.395Z,100691.69
2022-11-13T15:01:21.490Z,100694.25
2022-11-13T15:04:08.217Z,100696.28
2022-11-13T15:07:02.366Z,100706.75
2022-11-13T15:09:50.924Z,100709.41
2022-11-13T15:12:39.333Z,100713.13
2022-11-13T15:15:30.545Z,100700.69
2022-11-13T15:18:20.079Z,100704.38
2022-11-13T15:21:07.182Z,100703.44
2022-11-13T15:23:53.712Z,100707.13
2022-11-13T15:26:41.959Z,100694.06
2022-11-13T15:29:29.081Z,100689.66
2022-11-13T15:32:16.220Z,100688.78
2022-11-13T15:35:06.537Z,100703.94
2022-11-13T15:37:58.772Z,100710.41
2022-11-13T15:40:51.957Z,100708.88
2022-11-13T15:43:38.783Z,100700.13
2022-11-13T15:46:27.004Z,100705.59
2022-11-13T15:49:21.117Z,100697.00
2022-11-13T15:52:10.496Z,100693.53
2022-11-13T15:54:59.912Z,100689.59
2022-11-13T15:57:47.880Z,100697.00
2022-11-13T16:00:43.673Z,100699.88
2022-11-13T16:03:34.892Z,100702.91
2022-11-13T16:06:26.629Z,100709.31
2022-11-13T16:09:15.620Z,100701.72
2022-11-13T16:12:02.182Z,100714.09
2022-11-13T16:14:49.252Z,100709.69
2022-11-13T16:17:42.464Z,100692.16
2022-11-13T16:20:29.767Z,100699.34
2022-11-13T16:23:18.084Z,100700.34
2022-11-13T16:26:05.922Z,100692.50
2022-11-13T16:29:13.925Z,100695.44
2022-11-13T16:32:00.873Z,100700.06
2022-11-13T16:53:19.624Z,100688.72
2022-11-13T16:56:20.190Z,100681.81
2022-11-13T16:59:06.997Z,100667.09
2022-11-13T17:01:57.691Z,100678.47
2022-11-13T17:04:45.228Z,100681.41
2022-11-13T17:07:32.462Z,100674.50
2022-11-13T17:10:36.573Z,100668.38
2022-11-13T17:13:23.819Z,100672.19
2022-11-13T17:16:13.611Z,100670.31
2022-11-13T17:19:01.105Z,100667.81
2022-11-13T17:21:48.067Z,100679.25
2022-11-13T17:24:35.371Z,100663.34
2022-11-13T17:27:21.927Z,100657.09
2022-11-13T17:30:11.090Z,100650.81
2022-11-13T17:32:57.792Z,100660.44
2022-11-13T17:35:46.635Z,100659.63
2022-11-13T17:38:33.883Z,100653.56
2022-11-13T17:41:20.571Z,100662.56
2022-11-13T17:44:07.450Z,100655.72
2022-11-13T17:46:54.808Z,100649.84
2022-11-13T17:49:42.670Z,100649.00
2022-11-13T17:52:30.381Z,100659.75
2022-11-13T17:55:17.704Z,100670.56
2022-11-13T17:58:04.712Z,100663.63
2022-11-13T18:00:52.192Z,100657.41
2022-11-13T18:03:40.238Z,100654.72
2022-11-13T18:06:27.711Z,100663.56
2022-11-13T18:09:14.329Z,100657.41
2022-11-13T18:12:01.492Z,100647.06
2022-11-13T18:14:52.620Z,100654.28
2022-11-13T18:17:39.295Z,100652.81
2022-11-13T18:20:27.862Z,100650.22
2022-11-13T18:23:16.115Z,100655.66
2022-11-13T18:26:16.434Z,100659.06
2022-11-13T18:29:04.348Z,100648.53
2022-11-13T18:31:51.778Z,100654.75
2022-11-13T18:34:38.973Z,100655.53
2022-11-13T18:37:25.635Z,100662.59
2022-11-13T18:40:13.050Z,100663.47
2022-11-13T18:43:00.243Z,100652.22
2022-11-13T18:46:01.038Z,100664.53
2022-11-13T18:48:50.536Z,100661.25
2022-11-13T18:51:38.439Z,100658.91
2022-11-13T18:54:25.070Z,100660.59
2022-11-13T18:57:12.297Z,100666.84
2022-11-13T19:00:00.852Z,100645.06
2022-11-13T19:02:52.597Z,100670.41
2022-11-13T19:05:48.164Z,100657.13
2022-11-13T19:08:40.579Z,100657.94
2022-11-13T19:11:29.474Z,100658.59
2022-11-13T19:14:19.189Z,100662.00
2022-11-13T19:17:09.312Z,100653.13
2022-11-13T19:19:58.097Z,100657.38
2022-11-13T19:22:45.569Z,100653.66
2022-11-13T19:25:32.885Z,100626.41
2022-11-13T19:28:19.732Z,100630.66
2022-11-13T19:31:09.876Z,100635.00
2022-11-13T19:34:07.877Z,100643.63
2022-11-13T19:36:55.379Z,100643.63
2022-11-13T19:39:43.291Z,100638.31
2022-11-13T19:42:31.395Z,100625.94
2022-11-13T19:45:19.243Z,100625.94
2022-11-13T19:48:06.992Z,100622.34
2022-11-13T19:50:54.725Z,100619.63
2022-11-13T19:53:51.370Z,100624.75
2022-11-13T19:56:38.323Z,100627.41
2022-11-13T19:59:28.861Z,100637.09
2022-11-13T20:02:15.384Z,100627.47
2022-11-13T20:05:03.503Z,100640.44
2022-11-13T20:07:51.208Z,100643.00
2022-11-13T20:10:38.884Z,100649.91
2022-11-13T20:13:27.056Z,100645.59
2022-11-13T20:16:16.576Z,100645.53
2022-11-13T20:19:03.777Z,100649.00
